Stillmore, GA (30464)

1:37 AM EDT on September 24, 2014 (GMT -0400)
Hope Street | Change Station
CLOSE
Current Station
Personal Weather Station
Location: Metter, GA
Elevation: 211 ft
Nearby Weather Stations

Elev 211 ft 32.41 °N, 82.07 °W | Updated 3 seconds ago

Partly Cloudy
Partly Cloudy
59.8 °F
Feels Like 59.8 °F
N
0.0
Wind Variable Wind from NNE
Gusts 0.4 mph

Today
High -- | Low -- °F
--% Chance of Precip.
Yesterday
High -- | Low -- °F
Precip. -- in
7:18 AM 7:22 PM
Waning Crescent, 0% visible
Pressure 30.22 in
Visibility 10.0 miles
Clouds Scattered Clouds 3300 ft
Dew Point 55 °F
Humidity 84%
Rainfall 0.00 in
Snow Depth Not available.
UV 0 out of 12
Pollen 6.60 out of 12
Air Quality Not available.
Flu Activity Not available.
METAR KSBO 240515Z AUTO 04007KT 10SM SCT033 16/15 A3022 RMK AO2

More Conditions Fewer Conditions

Pressure 30.22 in
Visibility 10.0 miles
Clouds Scattered Clouds 3300 ft
Dew Point 55 °F
Humidity 84%
Rainfall 0.00 in
Snow Depth Not available.
UV 0 out of 12
Pollen 6.60 out of 12
Air Quality Not available.
Flu Activity Not available.
METAR KSBO 240515Z AUTO 04007KT 10SM SCT033 16/15 A3022 RMK AO2

More Conditions Fewer Conditions

10-Day Weather Forecast

Almanac

Astronomy

Sep. 24, 2014 Rise Set
Actual Time 7:18 AM EDT 7:22 PM EDT
Civil Twilight 6:53 AM EDT 7:47 PM EDT
Nautical Twilight 6:25 AM EDT 8:15 PM EDT
Astronomical Twilight 5:56 AM EDT 8:44 PM EDT
Moon 7:35 AM EDT 7:36 PM EDT
Length of Visible Light 12h 53m
Length of Day
12h 04m
Tomorrow will be 1m 59s shorter.
Waning Crescent, 0% of the Moon is Illuminated
Today
Waning Crescent
Sep 24
New
Oct 1
First Quarter
Oct 8
Full
Oct 15
Last Quarter

Today's Extremes

State Highs State Lows

Community

WunderPhotos

Upload Photos

1,755,891 photos uploaded!

WunderBlogs® & News

Nearby

Snow Depth

Station Depth Elevation
No new snow has been reported.

Earthquake Activity

City Distance Mag. Time & Date
No recent earthquake activity has been reported nearby.
Minimum magnitude displayed is 2.5.

Coastal Water Temperatures

Place Temperature
No Stations Reporting

Nearby Weather Stations